sensor_id;sensor_type;location;lat;lon;timestamp;P1;durP1;ratioP1;P2;durP2;ratioP2
15567;SDS011;7885;42.596;23.044;2023-02-10T00:01:56;54.10;;;25.00;;
15567;SDS011;7885;42.596;23.044;2023-02-10T00:04:23;42.80;;;22.20;;
15567;SDS011;7885;42.596;23.044;2023-02-10T00:06:50;25.27;;;15.07;;
15567;SDS011;7885;42.596;23.044;2023-02-10T00:09:16;33.63;;;16.47;;
15567;SDS011;7885;42.596;23.044;2023-02-10T00:11:43;51.67;;;25.70;;
15567;SDS011;7885;42.596;23.044;2023-02-10T00:14:23;54.23;;;28.43;;
15567;SDS011;7885;42.596;23.044;2023-02-10T00:16:51;44.40;;;23.67;;
15567;SDS011;7885;42.596;23.044;2023-02-10T00:19:20;45.87;;;27.57;;
15567;SDS011;7885;42.596;23.044;2023-02-10T00:21:47;37.60;;;20.60;;
15567;SDS011;7885;42.596;23.044;2023-02-10T00:24:14;36.47;;;21.57;;
15567;SDS011;7885;42.596;23.044;2023-02-10T00:26:42;55.37;;;29.43;;
15567;SDS011;7885;42.596;23.044;2023-02-10T00:29:08;55.80;;;30.60;;
15567;SDS011;7885;42.596;23.044;2023-02-10T00:31:35;51.40;;;29.03;;
15567;SDS011;7885;42.596;23.044;2023-02-10T00:34:02;43.07;;;24.57;;
15567;SDS011;7885;42.596;23.044;2023-02-10T00:36:30;48.43;;;25.00;;
15567;SDS011;7885;42.596;23.044;2023-02-10T00:38:57;45.43;;;25.17;;
15567;SDS011;7885;42.596;23.044;2023-02-10T00:41:23;39.40;;;22.47;;
15567;SDS011;7885;42.596;23.044;2023-02-10T00:43:50;42.97;;;25.43;;
15567;SDS011;7885;42.596;23.044;2023-02-10T00:46:18;48.93;;;26.20;;
15567;SDS011;7885;42.596;23.044;2023-02-10T00:48:46;43.10;;;25.93;;
15567;SDS011;7885;42.596;23.044;2023-02-10T00:51:13;43.67;;;23.90;;
15567;SDS011;7885;42.596;23.044;2023-02-10T00:53:42;38.20;;;21.83;;
15567;SDS011;7885;42.596;23.044;2023-02-10T00:56:09;40.80;;;22.67;;
15567;SDS011;7885;42.596;23.044;2023-02-10T00:58:36;38.83;;;21.43;;
15567;SDS011;7885;42.596;23.044;2023-02-10T01:01:03;40.77;;;21.97;;
15567;SDS011;7885;42.596;23.044;2023-02-10T01:03:31;40.30;;;22.53;;
15567;SDS011;7885;42.596;23.044;2023-02-10T01:05:58;41.97;;;21.90;;
15567;SDS011;7885;42.596;23.044;2023-02-10T01:08:24;47.10;;;24.10;;
15567;SDS011;7885;42.596;23.044;2023-02-10T01:10:58;37.50;;;21.00;;
15567;SDS011;7885;42.596;23.044;2023-02-10T01:13:26;54.33;;;23.83;;
15567;SDS011;7885;42.596;23.044;2023-02-10T01:15:53;49.43;;;23.97;;
15567;SDS011;7885;42.596;23.044;2023-02-10T01:18:20;52.23;;;23.87;;
15567;SDS011;7885;42.596;23.044;2023-02-10T01:20:46;49.50;;;23.53;;
15567;SDS011;7885;42.596;23.044;2023-02-10T01:23:13;45.63;;;22.77;;
15567;SDS011;7885;42.596;23.044;2023-02-10T01:25:40;41.70;;;21.23;;
15567;SDS011;7885;42.596;23.044;2023-02-10T01:28:09;42.43;;;21.83;;
15567;SDS011;7885;42.596;23.044;2023-02-10T01:30:36;47.20;;;21.87;;
15567;SDS011;7885;42.596;23.044;2023-02-10T01:33:03;39.37;;;20.77;;
15567;SDS011;7885;42.596;23.044;2023-02-10T01:35:30;45.40;;;20.50;;
15567;SDS011;7885;42.596;23.044;2023-02-10T01:37:57;38.77;;;19.67;;
15567;SDS011;7885;42.596;23.044;2023-02-10T01:40:24;39.60;;;20.40;;
15567;SDS011;7885;42.596;23.044;2023-02-10T01:42:52;37.20;;;20.20;;
15567;SDS011;7885;42.596;23.044;2023-02-10T01:45:20;42.30;;;21.97;;
15567;SDS011;7885;42.596;23.044;2023-02-10T01:47:52;49.53;;;22.47;;
15567;SDS011;7885;42.596;23.044;2023-02-10T01:50:22;44.30;;;22.57;;
15567;SDS011;7885;42.596;23.044;2023-02-10T01:52:52;40.50;;;21.47;;
15567;SDS011;7885;42.596;23.044;2023-02-10T01:55:20;41.63;;;20.53;;
15567;SDS011;7885;42.596;23.044;2023-02-10T01:57:50;47.07;;;22.80;;
15567;SDS011;7885;42.596;23.044;2023-02-10T02:00:21;48.40;;;23.93;;
15567;SDS011;7885;42.596;23.044;2023-02-10T02:02:50;48.53;;;23.17;;
15567;SDS011;7885;42.596;23.044;2023-02-10T02:05:18;55.40;;;24.87;;
15567;SDS011;7885;42.596;23.044;2023-02-10T02:08:03;47.93;;;22.57;;
15567;SDS011;7885;42.596;23.044;2023-02-10T02:10:43;59.27;;;28.80;;
15567;SDS011;7885;42.596;23.044;2023-02-10T02:13:23;60.70;;;28.60;;
15567;SDS011;7885;42.596;23.044;2023-02-10T02:16:00;46.73;;;23.77;;
15567;SDS011;7885;42.596;23.044;2023-02-10T02:18:36;46.47;;;23.40;;
15567;SDS011;7885;42.596;23.044;2023-02-10T02:24:31;43.90;;;24.03;;
15567;SDS011;7885;42.596;23.044;2023-02-10T02:27:35;44.27;;;22.93;;
15567;SDS011;7885;42.596;23.044;2023-02-10T02:30:17;36.03;;;17.43;;
15567;SDS011;7885;42.596;23.044;2023-02-10T02:32:59;47.40;;;24.37;;
15567;SDS011;7885;42.596;23.044;2023-02-10T02:35:31;47.80;;;25.00;;
15567;SDS011;7885;42.596;23.044;2023-02-10T02:38:03;39.43;;;23.70;;
15567;SDS011;7885;42.596;23.044;2023-02-10T02:40:30;42.03;;;21.97;;
15567;SDS011;7885;42.596;23.044;2023-02-10T02:42:57;35.80;;;18.60;;
15567;SDS011;7885;42.596;23.044;2023-02-10T02:45:25;32.87;;;17.23;;
15567;SDS011;7885;42.596;23.044;2023-02-10T02:50:50;41.90;;;21.43;;
15567;SDS011;7885;42.596;23.044;2023-02-10T02:53:28;32.77;;;17.40;;
15567;SDS011;7885;42.596;23.044;2023-02-10T02:56:02;33.60;;;18.93;;
15567;SDS011;7885;42.596;23.044;2023-02-10T02:58:40;30.70;;;16.70;;
15567;SDS011;7885;42.596;23.044;2023-02-10T03:01:16;37.20;;;20.17;;
15567;SDS011;7885;42.596;23.044;2023-02-10T03:03:52;39.20;;;18.80;;
15567;SDS011;7885;42.596;23.044;2023-02-10T03:06:20;33.03;;;18.00;;
15567;SDS011;7885;42.596;23.044;2023-02-10T03:08:47;46.40;;;22.33;;
15567;SDS011;7885;42.596;23.044;2023-02-10T03:11:14;53.97;;;28.43;;
15567;SDS011;7885;42.596;23.044;2023-02-10T03:13:40;43.67;;;24.37;;
15567;SDS011;7885;42.596;23.044;2023-02-10T03:19:29;29.63;;;14.57;;
15567;SDS011;7885;42.596;23.044;2023-02-10T03:21:56;27.83;;;13.87;;
15567;SDS011;7885;42.596;23.044;2023-02-10T03:24:23;24.63;;;13.60;;
15567;SDS011;7885;42.596;23.044;2023-02-10T03:26:50;30.13;;;16.87;;
15567;SDS011;7885;42.596;23.044;2023-02-10T03:29:16;33.13;;;17.63;;
15567;SDS011;7885;42.596;23.044;2023-02-10T03:31:43;36.93;;;17.40;;
15567;SDS011;7885;42.596;23.044;2023-02-10T03:34:10;27.23;;;16.13;;
15567;SDS011;7885;42.596;23.044;2023-02-10T03:36:38;35.50;;;17.63;;
15567;SDS011;7885;42.596;23.044;2023-02-10T03:39:05;23.67;;;15.63;;
15567;SDS011;7885;42.596;23.044;2023-02-10T03:41:32;63.30;;;31.20;;
15567;SDS011;7885;42.596;23.044;2023-02-10T03:43:59;79.60;;;35.47;;
15567;SDS011;7885;42.596;23.044;2023-02-10T03:46:26;39.87;;;20.27;;
15567;SDS011;7885;42.596;23.044;2023-02-10T03:48:52;29.77;;;16.43;;
15567;SDS011;7885;42.596;23.044;2023-02-10T03:51:19;34.77;;;17.60;;
15567;SDS011;7885;42.596;23.044;2023-02-10T03:53:47;32.47;;;17.57;;
15567;SDS011;7885;42.596;23.044;2023-02-10T03:56:14;38.23;;;20.80;;
15567;SDS011;7885;42.596;23.044;2023-02-10T03:58:41;45.23;;;24.40;;
15567;SDS011;7885;42.596;23.044;2023-02-10T04:01:08;50.40;;;25.47;;
15567;SDS011;7885;42.596;23.044;2023-02-10T04:03:36;42.90;;;23.33;;
15567;SDS011;7885;42.596;23.044;2023-02-10T04:06:03;37.10;;;20.37;;
15567;SDS011;7885;42.596;23.044;2023-02-10T04:08:30;34.17;;;19.67;;
15567;SDS011;7885;42.596;23.044;2023-02-10T04:10:58;32.57;;;17.63;;
15567;SDS011;7885;42.596;23.044;2023-02-10T04:13:25;40.30;;;18.83;;
15567;SDS011;7885;42.596;23.044;2023-02-10T04:15:59;40.47;;;21.97;;
15567;SDS011;7885;42.596;23.044;2023-02-10T04:18:27;37.20;;;20.67;;
15567;SDS011;7885;42.596;23.044;2023-02-10T04:20:54;33.90;;;18.60;;
15567;SDS011;7885;42.596;23.044;2023-02-10T04:23:20;43.13;;;22.67;;
15567;SDS011;7885;42.596;23.044;2023-02-10T04:25:47;38.77;;;21.93;;
15567;SDS011;7885;42.596;23.044;2023-02-10T04:28:16;37.70;;;20.53;;
15567;SDS011;7885;42.596;23.044;2023-02-10T04:30:42;41.67;;;20.90;;
15567;SDS011;7885;42.596;23.044;2023-02-10T04:33:09;35.00;;;19.70;;
15567;SDS011;7885;42.596;23.044;2023-02-10T04:35:36;33.03;;;19.83;;
15567;SDS011;7885;42.596;23.044;2023-02-10T04:38:03;44.17;;;22.57;;
15567;SDS011;7885;42.596;23.044;2023-02-10T04:40:29;39.87;;;21.33;;
15567;SDS011;7885;42.596;23.044;2023-02-10T04:42:56;35.73;;;21.50;;
15567;SDS011;7885;42.596;23.044;2023-02-10T04:45:24;41.97;;;22.30;;
15567;SDS011;7885;42.596;23.044;2023-02-10T04:47:51;42.30;;;23.93;;
15567;SDS011;7885;42.596;23.044;2023-02-10T04:50:18;46.70;;;27.53;;
15567;SDS011;7885;42.596;23.044;2023-02-10T04:52:44;41.07;;;23.87;;
15567;SDS011;7885;42.596;23.044;2023-02-10T04:55:11;41.97;;;26.20;;
15567;SDS011;7885;42.596;23.044;2023-02-10T04:57:38;39.00;;;20.87;;
15567;SDS011;7885;42.596;23.044;2023-02-10T05:00:05;35.63;;;21.13;;
15567;SDS011;7885;42.596;23.044;2023-02-10T05:02:34;30.57;;;18.70;;
15567;SDS011;7885;42.596;23.044;2023-02-10T05:05:01;37.27;;;19.40;;
15567;SDS011;7885;42.596;23.044;2023-02-10T05:07:27;37.50;;;19.60;;
15567;SDS011;7885;42.596;23.044;2023-02-10T05:09:54;33.57;;;19.43;;
15567;SDS011;7885;42.596;23.044;2023-02-10T05:12:21;38.23;;;18.40;;
15567;SDS011;7885;42.596;23.044;2023-02-10T05:14:48;30.67;;;16.93;;
15567;SDS011;7885;42.596;23.044;2023-02-10T05:17:14;30.70;;;17.97;;
15567;SDS011;7885;42.596;23.044;2023-02-10T05:19:42;39.03;;;22.80;;
15567;SDS011;7885;42.596;23.044;2023-02-10T05:22:09;36.87;;;20.20;;
15567;SDS011;7885;42.596;23.044;2023-02-10T05:24:36;42.67;;;21.90;;
15567;SDS011;7885;42.596;23.044;2023-02-10T05:27:02;33.13;;;18.70;;
15567;SDS011;7885;42.596;23.044;2023-02-10T05:29:29;38.37;;;21.17;;
15567;SDS011;7885;42.596;23.044;2023-02-10T05:31:56;40.57;;;21.97;;
15567;SDS011;7885;42.596;23.044;2023-02-10T05:34:23;43.33;;;21.63;;
15567;SDS011;7885;42.596;23.044;2023-02-10T05:36:52;39.97;;;24.93;;
15567;SDS011;7885;42.596;23.044;2023-02-10T05:39:19;39.07;;;20.10;;
15567;SDS011;7885;42.596;23.044;2023-02-10T05:41:51;40.43;;;22.73;;
15567;SDS011;7885;42.596;23.044;2023-02-10T05:44:18;36.37;;;21.70;;
15567;SDS011;7885;42.596;23.044;2023-02-10T05:46:46;38.33;;;20.10;;
15567;SDS011;7885;42.596;23.044;2023-02-10T05:49:13;36.87;;;20.23;;
15567;SDS011;7885;42.596;23.044;2023-02-10T05:51:39;35.00;;;19.07;;
15567;SDS011;7885;42.596;23.044;2023-02-10T05:54:08;32.80;;;19.07;;
15567;SDS011;7885;42.596;23.044;2023-02-10T05:56:35;45.40;;;22.77;;
15567;SDS011;7885;42.596;23.044;2023-02-10T05:59:02;37.77;;;20.27;;
15567;SDS011;7885;42.596;23.044;2023-02-10T06:01:32;34.57;;;20.47;;
15567;SDS011;7885;42.596;23.044;2023-02-10T06:03:59;35.60;;;20.60;;
15567;SDS011;7885;42.596;23.044;2023-02-10T06:06:26;34.67;;;21.20;;
15567;SDS011;7885;42.596;23.044;2023-02-10T06:08:53;38.70;;;20.77;;
15567;SDS011;7885;42.596;23.044;2023-02-10T06:11:21;37.40;;;20.33;;
15567;SDS011;7885;42.596;23.044;2023-02-10T06:13:48;35.77;;;20.77;;
15567;SDS011;7885;42.596;23.044;2023-02-10T06:16:15;32.53;;;20.30;;
15567;SDS011;7885;42.596;23.044;2023-02-10T06:18:41;30.97;;;19.83;;
15567;SDS011;7885;42.596;23.044;2023-02-10T06:21:09;37.43;;;21.53;;
15567;SDS011;7885;42.596;23.044;2023-02-10T06:23:36;37.20;;;20.97;;
15567;SDS011;7885;42.596;23.044;2023-02-10T06:26:03;40.33;;;21.00;;
15567;SDS011;7885;42.596;23.044;2023-02-10T06:28:31;38.37;;;20.97;;
15567;SDS011;7885;42.596;23.044;2023-02-10T06:30:58;46.13;;;22.83;;
15567;SDS011;7885;42.596;23.044;2023-02-10T06:33:24;39.13;;;22.53;;
15567;SDS011;7885;42.596;23.044;2023-02-10T06:35:51;41.83;;;23.00;;
15567;SDS011;7885;42.596;23.044;2023-02-10T06:38:18;39.63;;;22.93;;
15567;SDS011;7885;42.596;23.044;2023-02-10T06:40:45;41.27;;;23.30;;
15567;SDS011;7885;42.596;23.044;2023-02-10T06:43:11;35.43;;;22.00;;
15567;SDS011;7885;42.596;23.044;2023-02-10T06:45:39;39.17;;;21.60;;
15567;SDS011;7885;42.596;23.044;2023-02-10T06:48:06;45.97;;;24.83;;
15567;SDS011;7885;42.596;23.044;2023-02-10T06:50:33;38.50;;;22.80;;
15567;SDS011;7885;42.596;23.044;2023-02-10T06:53:00;39.37;;;22.97;;
15567;SDS011;7885;42.596;23.044;2023-02-10T06:55:26;39.30;;;24.80;;
15567;SDS011;7885;42.596;23.044;2023-02-10T06:57:53;41.53;;;28.13;;
15567;SDS011;7885;42.596;23.044;2023-02-10T07:00:23;47.70;;;32.13;;
15567;SDS011;7885;42.596;23.044;2023-02-10T07:02:52;49.03;;;36.50;;
15567;SDS011;7885;42.596;23.044;2023-02-10T07:05:18;54.53;;;39.53;;
15567;SDS011;7885;42.596;23.044;2023-02-10T07:07:45;62.17;;;41.90;;
15567;SDS011;7885;42.596;23.044;2023-02-10T07:10:12;60.37;;;40.20;;
15567;SDS011;7885;42.596;23.044;2023-02-10T07:12:39;61.40;;;42.60;;
15567;SDS011;7885;42.596;23.044;2023-02-10T07:15:06;54.37;;;40.53;;
15567;SDS011;7885;42.596;23.044;2023-02-10T07:17:33;56.43;;;41.27;;
15567;SDS011;7885;42.596;23.044;2023-02-10T07:20:03;63.07;;;44.53;;
15567;SDS011;7885;42.596;23.044;2023-02-10T07:22:30;81.37;;;49.30;;
15567;SDS011;7885;42.596;23.044;2023-02-10T07:24:57;75.17;;;49.60;;
15567;SDS011;7885;42.596;23.044;2023-02-10T07:27:23;72.47;;;50.63;;
15567;SDS011;7885;42.596;23.044;2023-02-10T07:29:50;75.67;;;51.13;;
15567;SDS011;7885;42.596;23.044;2023-02-10T07:32:17;72.93;;;49.80;;
15567;SDS011;7885;42.596;23.044;2023-02-10T07:34:43;58.67;;;44.10;;
15567;SDS011;7885;42.596;23.044;2023-02-10T07:37:12;54.57;;;41.20;;
15567;SDS011;7885;42.596;23.044;2023-02-10T07:39:39;52.93;;;45.83;;
15567;SDS011;7885;42.596;23.044;2023-02-10T07:42:06;67.37;;;55.60;;
15567;SDS011;7885;42.596;23.044;2023-02-10T07:44:32;85.77;;;69.40;;
15567;SDS011;7885;42.596;23.044;2023-02-10T07:46:59;82.87;;;65.43;;
15567;SDS011;7885;42.596;23.044;2023-02-10T07:49:26;72.57;;;59.63;;
15567;SDS011;7885;42.596;23.044;2023-02-10T07:51:54;66.37;;;56.17;;
15567;SDS011;7885;42.596;23.044;2023-02-10T07:54:22;67.57;;;53.90;;
15567;SDS011;7885;42.596;23.044;2023-02-10T07:56:48;63.57;;;50.80;;
15567;SDS011;7885;42.596;23.044;2023-02-10T07:59:15;72.03;;;57.60;;
15567;SDS011;7885;42.596;23.044;2023-02-10T08:01:42;99.93;;;78.43;;
15567;SDS011;7885;42.596;23.044;2023-02-10T08:04:10;86.63;;;69.40;;
15567;SDS011;7885;42.596;23.044;2023-02-10T08:06:37;78.47;;;64.03;;
15567;SDS011;7885;42.596;23.044;2023-02-10T08:09:03;77.03;;;63.97;;
15567;SDS011;7885;42.596;23.044;2023-02-10T08:11:32;75.33;;;61.93;;
15567;SDS011;7885;42.596;23.044;2023-02-10T08:14:00;56.53;;;48.60;;
15567;SDS011;7885;42.596;23.044;2023-02-10T08:16:27;69.13;;;49.40;;
15567;SDS011;7885;42.596;23.044;2023-02-10T08:18:54;71.97;;;52.80;;
15567;SDS011;7885;42.596;23.044;2023-02-10T08:21:20;61.03;;;49.00;;
15567;SDS011;7885;42.596;23.044;2023-02-10T08:23:47;66.97;;;48.70;;
15567;SDS011;7885;42.596;23.044;2023-02-10T08:26:20;51.10;;;40.53;;
15567;SDS011;7885;42.596;23.044;2023-02-10T08:28:49;48.05;;;39.50;;
15567;SDS011;7885;42.596;23.044;2023-02-10T08:31:16;53.97;;;35.63;;
15567;SDS011;7885;42.596;23.044;2023-02-10T08:33:43;47.95;;;34.28;;
15567;SDS011;7885;42.596;23.044;2023-02-10T08:36:11;48.65;;;34.67;;
15567;SDS011;7885;42.596;23.044;2023-02-10T08:38:40;44.28;;;35.35;;
15567;SDS011;7885;42.596;23.044;2023-02-10T08:41:07;49.58;;;36.17;;
15567;SDS011;7885;42.596;23.044;2023-02-10T08:43:34;56.78;;;42.08;;
15567;SDS011;7885;42.596;23.044;2023-02-10T08:46:02;64.03;;;40.53;;
15567;SDS011;7885;42.596;23.044;2023-02-10T08:48:30;57.45;;;39.03;;
15567;SDS011;7885;42.596;23.044;2023-02-10T08:50:57;47.33;;;33.83;;
15567;SDS011;7885;42.596;23.044;2023-02-10T08:53:24;44.58;;;31.40;;
15567;SDS011;7885;42.596;23.044;2023-02-10T08:55:55;40.80;;;29.95;;
15567;SDS011;7885;42.596;23.044;2023-02-10T08:58:22;36.35;;;28.38;;
15567;SDS011;7885;42.596;23.044;2023-02-10T09:00:49;37.35;;;28.75;;
15567;SDS011;7885;42.596;23.044;2023-02-10T09:03:17;35.72;;;29.88;;
15567;SDS011;7885;42.596;23.044;2023-02-10T09:05:44;36.85;;;28.27;;
15567;SDS011;7885;42.596;23.044;2023-02-10T09:08:11;37.35;;;29.67;;
15567;SDS011;7885;42.596;23.044;2023-02-10T09:10:38;41.15;;;33.38;;
15567;SDS011;7885;42.596;23.044;2023-02-10T09:13:05;44.40;;;33.85;;
15567;SDS011;7885;42.596;23.044;2023-02-10T09:15:33;47.50;;;35.35;;
15567;SDS011;7885;42.596;23.044;2023-02-10T09:18:02;47.22;;;32.83;;
15567;SDS011;7885;42.596;23.044;2023-02-10T09:20:30;46.72;;;31.23;;
15567;SDS011;7885;42.596;23.044;2023-02-10T09:22:57;46.05;;;36.28;;
15567;SDS011;7885;42.596;23.044;2023-02-10T09:25:23;46.97;;;35.08;;
15567;SDS011;7885;42.596;23.044;2023-02-10T09:27:51;52.45;;;40.40;;
15567;SDS011;7885;42.596;23.044;2023-02-10T09:30:19;52.35;;;38.70;;
15567;SDS011;7885;42.596;23.044;2023-02-10T09:32:46;45.55;;;37.08;;
15567;SDS011;7885;42.596;23.044;2023-02-10T09:35:13;48.72;;;35.85;;
15567;SDS011;7885;42.596;23.044;2023-02-10T09:37:41;50.40;;;37.33;;
15567;SDS011;7885;42.596;23.044;2023-02-10T09:40:09;49.95;;;36.25;;
15567;SDS011;7885;42.596;23.044;2023-02-10T09:42:45;47.85;;;37.60;;
15567;SDS011;7885;42.596;23.044;2023-02-10T09:45:25;46.38;;;36.40;;
15567;SDS011;7885;42.596;23.044;2023-02-10T09:47:58;46.25;;;36.85;;
15567;SDS011;7885;42.596;23.044;2023-02-10T09:50:37;51.38;;;38.92;;
15567;SDS011;7885;42.596;23.044;2023-02-10T09:53:12;44.17;;;33.75;;
15567;SDS011;7885;42.596;23.044;2023-02-10T09:55:45;36.47;;;30.40;;
15567;SDS011;7885;42.596;23.044;2023-02-10T09:58:17;47.97;;;35.80;;
15567;SDS011;7885;42.596;23.044;2023-02-10T10:00:48;42.28;;;35.25;;
15567;SDS011;7885;42.596;23.044;2023-02-10T10:03:21;36.67;;;29.95;;
15567;SDS011;7885;42.596;23.044;2023-02-10T10:05:55;31.75;;;28.08;;
15567;SDS011;7885;42.596;23.044;2023-02-10T10:08:32;39.83;;;30.27;;
15567;SDS011;7885;42.596;23.044;2023-02-10T10:11:05;37.28;;;29.35;;
15567;SDS011;7885;42.596;23.044;2023-02-10T10:13:43;41.55;;;33.33;;
15567;SDS011;7885;42.596;23.044;2023-02-10T10:16:13;34.50;;;28.33;;
15567;SDS011;7885;42.596;23.044;2023-02-10T10:18:47;40.90;;;30.83;;
15567;SDS011;7885;42.596;23.044;2023-02-10T10:21:26;39.47;;;31.55;;
15567;SDS011;7885;42.596;23.044;2023-02-10T10:24:04;43.55;;;33.47;;
15567;SDS011;7885;42.596;23.044;2023-02-10T10:30:06;37.47;;;29.00;;
15567;SDS011;7885;42.596;23.044;2023-02-10T10:32:40;39.72;;;30.13;;
15567;SDS011;7885;42.596;23.044;2023-02-10T10:35:11;39.63;;;28.85;;
15567;SDS011;7885;42.596;23.044;2023-02-10T10:37:41;27.55;;;22.95;;
15567;SDS011;7885;42.596;23.044;2023-02-10T10:40:13;32.85;;;25.00;;
15567;SDS011;7885;42.596;23.044;2023-02-10T10:42:43;32.58;;;26.13;;
15567;SDS011;7885;42.596;23.044;2023-02-10T10:45:13;25.35;;;21.30;;
15567;SDS011;7885;42.596;23.044;2023-02-10T10:47:45;26.77;;;21.25;;
15567;SDS011;7885;42.596;23.044;2023-02-10T10:50:14;25.90;;;21.77;;
15567;SDS011;7885;42.596;23.044;2023-02-10T10:52:43;19.48;;;16.00;;
15567;SDS011;7885;42.596;23.044;2023-02-10T10:55:14;20.40;;;15.93;;
15567;SDS011;7885;42.596;23.044;2023-02-10T10:57:45;20.67;;;18.45;;
15567;SDS011;7885;42.596;23.044;2023-02-10T11:00:19;19.08;;;16.08;;
15567;SDS011;7885;42.596;23.044;2023-02-10T11:02:51;20.85;;;16.63;;
15567;SDS011;7885;42.596;23.044;2023-02-10T11:05:19;22.40;;;17.85;;
15567;SDS011;7885;42.596;23.044;2023-02-10T11:07:48;23.05;;;17.95;;
15567;SDS011;7885;42.596;23.044;2023-02-10T11:10:23;16.27;;;13.90;;
15567;SDS011;7885;42.596;23.044;2023-02-10T11:12:53;17.08;;;12.73;;
15567;SDS011;7885;42.596;23.044;2023-02-10T11:15:28;18.05;;;15.70;;
15567;SDS011;7885;42.596;23.044;2023-02-10T11:17:58;18.15;;;14.60;;
15567;SDS011;7885;42.596;23.044;2023-02-10T11:20:27;17.10;;;13.68;;
15567;SDS011;7885;42.596;23.044;2023-02-10T11:22:56;15.35;;;13.52;;
15567;SDS011;7885;42.596;23.044;2023-02-10T11:25:27;16.25;;;13.63;;
15567;SDS011;7885;42.596;23.044;2023-02-10T11:27:56;16.27;;;14.00;;
15567;SDS011;7885;42.596;23.044;2023-02-10T11:30:25;15.83;;;12.80;;
15567;SDS011;7885;42.596;23.044;2023-02-10T11:32:56;16.47;;;12.57;;
15567;SDS011;7885;42.596;23.044;2023-02-10T11:35:25;16.87;;;12.60;;
15567;SDS011;7885;42.596;23.044;2023-02-10T11:37:53;17.90;;;13.23;;
15567;SDS011;7885;42.596;23.044;2023-02-10T11:40:25;16.37;;;12.70;;
15567;SDS011;7885;42.596;23.044;2023-02-10T11:42:56;14.97;;;13.30;;
15567;SDS011;7885;42.596;23.044;2023-02-10T11:45:25;17.33;;;13.57;;
15567;SDS011;7885;42.596;23.044;2023-02-10T11:47:59;15.77;;;12.40;;
15567;SDS011;7885;42.596;23.044;2023-02-10T11:50:28;16.07;;;11.33;;
15567;SDS011;7885;42.596;23.044;2023-02-10T11:52:58;14.97;;;12.00;;
15567;SDS011;7885;42.596;23.044;2023-02-10T11:55:26;13.50;;;9.73;;
15567;SDS011;7885;42.596;23.044;2023-02-10T11:58:04;15.93;;;12.03;;
15567;SDS011;7885;42.596;23.044;2023-02-10T12:01:06;12.63;;;10.27;;
15567;SDS011;7885;42.596;23.044;2023-02-10T12:03:40;13.70;;;10.13;;
15567;SDS011;7885;42.596;23.044;2023-02-10T12:06:19;15.80;;;11.40;;
15567;SDS011;7885;42.596;23.044;2023-02-10T12:08:53;13.47;;;10.33;;
15567;SDS011;7885;42.596;23.044;2023-02-10T12:11:31;17.23;;;12.80;;
15567;SDS011;7885;42.596;23.044;2023-02-10T12:14:06;13.93;;;11.43;;
15567;SDS011;7885;42.596;23.044;2023-02-10T12:16:51;13.57;;;9.70;;
15567;SDS011;7885;42.596;23.044;2023-02-10T12:19:27;9.33;;;7.80;;
15567;SDS011;7885;42.596;23.044;2023-02-10T12:22:04;10.50;;;8.63;;
15567;SDS011;7885;42.596;23.044;2023-02-10T12:27:31;10.07;;;7.87;;
15567;SDS011;7885;42.596;23.044;2023-02-10T12:30:07;8.43;;;7.47;;
15567;SDS011;7885;42.596;23.044;2023-02-10T12:32:48;8.90;;;7.87;;
15567;SDS011;7885;42.596;23.044;2023-02-10T12:35:26;14.10;;;7.83;;
15567;SDS011;7885;42.596;23.044;2023-02-10T12:38:03;10.57;;;8.77;;
15567;SDS011;7885;42.596;23.044;2023-02-10T12:40:44;11.07;;;8.47;;
15567;SDS011;7885;42.596;23.044;2023-02-10T12:43:30;9.20;;;7.33;;
15567;SDS011;7885;42.596;23.044;2023-02-10T12:46:07;8.47;;;6.93;;
15567;SDS011;7885;42.596;23.044;2023-02-10T12:48:43;9.60;;;6.40;;
15567;SDS011;7885;42.596;23.044;2023-02-10T12:51:22;9.47;;;6.70;;
15567;SDS011;7885;42.596;23.044;2023-02-10T12:57:12;6.87;;;6.17;;
15567;SDS011;7885;42.596;23.044;2023-02-10T12:59:48;9.70;;;6.10;;
15567;SDS011;7885;42.596;23.044;2023-02-10T13:02:20;9.00;;;6.97;;
15567;SDS011;7885;42.596;23.044;2023-02-10T13:04:53;12.00;;;6.67;;
15567;SDS011;7885;42.596;23.044;2023-02-10T13:07:28;9.83;;;7.30;;
15567;SDS011;7885;42.596;23.044;2023-02-10T13:10:03;9.80;;;7.47;;
15567;SDS011;7885;42.596;23.044;2023-02-10T13:12:41;9.80;;;6.53;;
15567;SDS011;7885;42.596;23.044;2023-02-10T13:15:14;6.00;;;5.40;;
15567;SDS011;7885;42.596;23.044;2023-02-10T13:17:44;7.50;;;6.70;;
15567;SDS011;7885;42.596;23.044;2023-02-10T13:20:19;7.63;;;6.17;;
15567;SDS011;7885;42.596;23.044;2023-02-10T13:22:55;11.93;;;7.03;;
15567;SDS011;7885;42.596;23.044;2023-02-10T13:25:30;10.27;;;8.47;;
15567;SDS011;7885;42.596;23.044;2023-02-10T13:28:11;9.77;;;7.70;;
15567;SDS011;7885;42.596;23.044;2023-02-10T13:30:52;10.03;;;8.00;;
15567;SDS011;7885;42.596;23.044;2023-02-10T13:33:31;12.30;;;8.40;;
15567;SDS011;7885;42.596;23.044;2023-02-10T13:36:07;10.10;;;8.40;;
15567;SDS011;7885;42.596;23.044;2023-02-10T13:38:40;8.60;;;7.00;;
15567;SDS011;7885;42.596;23.044;2023-02-10T13:41:16;9.67;;;8.67;;
15567;SDS011;7885;42.596;23.044;2023-02-10T13:44:17;7.43;;;5.80;;
15567;SDS011;7885;42.596;23.044;2023-02-10T13:46:55;7.60;;;5.37;;
15567;SDS011;7885;42.596;23.044;2023-02-10T13:49:35;6.70;;;5.43;;
15567;SDS011;7885;42.596;23.044;2023-02-10T13:52:06;10.03;;;6.13;;
15567;SDS011;7885;42.596;23.044;2023-02-10T13:54:38;6.30;;;5.70;;
15567;SDS011;7885;42.596;23.044;2023-02-10T13:59:51;10.90;;;7.27;;
15567;SDS011;7885;42.596;23.044;2023-02-10T14:02:19;9.70;;;7.40;;
15567;SDS011;7885;42.596;23.044;2023-02-10T14:04:48;10.73;;;8.27;;
15567;SDS011;7885;42.596;23.044;2023-02-10T14:07:30;7.27;;;6.33;;
15567;SDS011;7885;42.596;23.044;2023-02-10T14:10:00;11.43;;;9.00;;
15567;SDS011;7885;42.596;23.044;2023-02-10T14:12:33;11.43;;;8.00;;
15567;SDS011;7885;42.596;23.044;2023-02-10T14:15:20;7.77;;;6.00;;
15567;SDS011;7885;42.596;23.044;2023-02-10T14:17:53;9.13;;;7.00;;
15567;SDS011;7885;42.596;23.044;2023-02-10T14:20:26;8.27;;;6.80;;
15567;SDS011;7885;42.596;23.044;2023-02-10T14:22:57;7.70;;;6.43;;
15567;SDS011;7885;42.596;23.044;2023-02-10T14:25:29;8.13;;;6.40;;
15567;SDS011;7885;42.596;23.044;2023-02-10T14:27:59;8.70;;;7.80;;
15567;SDS011;7885;42.596;23.044;2023-02-10T14:30:32;11.27;;;9.53;;
15567;SDS011;7885;42.596;23.044;2023-02-10T14:33:06;8.77;;;7.07;;
15567;SDS011;7885;42.596;23.044;2023-02-10T14:35:47;8.43;;;6.37;;
15567;SDS011;7885;42.596;23.044;2023-02-10T14:38:19;7.07;;;5.40;;
15567;SDS011;7885;42.596;23.044;2023-02-10T14:40:48;9.73;;;6.47;;
15567;SDS011;7885;42.596;23.044;2023-02-10T14:43:18;9.77;;;6.70;;
15567;SDS011;7885;42.596;23.044;2023-02-10T14:45:49;9.30;;;7.40;;
15567;SDS011;7885;42.596;23.044;2023-02-10T14:48:17;9.60;;;7.00;;
15567;SDS011;7885;42.596;23.044;2023-02-10T14:50:55;15.37;;;9.67;;
15567;SDS011;7885;42.596;23.044;2023-02-10T14:56:49;19.03;;;11.10;;
15567;SDS011;7885;42.596;23.044;2023-02-10T14:59:20;12.33;;;9.73;;
15567;SDS011;7885;42.596;23.044;2023-02-10T15:01:48;23.07;;;14.47;;
15567;SDS011;7885;42.596;23.044;2023-02-10T15:04:17;17.33;;;11.97;;
15567;SDS011;7885;42.596;23.044;2023-02-10T15:06:47;9.77;;;8.13;;
15567;SDS011;7885;42.596;23.044;2023-02-10T15:09:16;13.37;;;10.50;;